createdAt,value
2022-11-15T00:02:04.633Z,63.54
2022-11-15T00:04:49.830Z,63.59
2022-11-15T00:07:54.473Z,63.25
2022-11-15T00:10:40.146Z,62.84
2022-11-15T00:13:25.458Z,63.04
2022-11-15T00:16:11.056Z,63.16
2022-11-15T00:18:57.785Z,63.02
2022-11-15T00:21:43.192Z,63.13
2022-11-15T00:24:28.571Z,63.17
2022-11-15T00:27:13.876Z,62.91
2022-11-15T00:29:58.989Z,62.97
2022-11-15T00:32:44.327Z,62.71
2022-11-15T00:35:33.138Z,62.19
2022-11-15T00:38:18.204Z,62.11
2022-11-15T00:41:09.073Z,62.23
2022-11-15T00:43:54.443Z,62.47
2022-11-15T00:46:39.983Z,62.66
2022-11-15T00:49:25.178Z,62.82
2022-11-15T00:52:10.531Z,63.35
2022-11-15T00:54:55.918Z,63.26
2022-11-15T00:57:41.493Z,63.29
2022-11-15T01:00:26.955Z,63.16
2022-11-15T01:03:12.285Z,62.68
2022-11-15T01:06:00.532Z,62.89
2022-11-15T01:08:45.712Z,63.14
2022-11-15T01:11:31.275Z,63.32
2022-11-15T01:14:17.086Z,63.43
2022-11-15T01:17:04.755Z,63.00
2022-11-15T01:19:49.642Z,62.75
2022-11-15T01:22:34.959Z,62.01
2022-11-15T01:25:19.774Z,62.00
2022-11-15T01:28:05.331Z,62.20
2022-11-15T01:30:50.202Z,61.98
2022-11-15T01:33:36.844Z,62.04
2022-11-15T01:36:22.521Z,62.33
2022-11-15T01:39:08.319Z,62.75
2022-11-15T01:41:53.885Z,62.85
2022-11-15T01:44:50.403Z,62.27
2022-11-15T01:47:41.057Z,62.53
2022-11-15T01:50:29.768Z,62.20
2022-11-15T01:53:14.780Z,62.46
2022-11-15T01:56:02.063Z,62.59
2022-11-15T01:58:47.303Z,62.51
2022-11-15T02:01:33.072Z,62.22
2022-11-15T02:04:30.014Z,62.72
2022-11-15T02:07:17.922Z,62.35
2022-11-15T02:10:17.345Z,62.69
2022-11-15T02:13:02.831Z,63.25
2022-11-15T02:16:15.649Z,63.27
2022-11-15T02:19:28.369Z,62.80
2022-11-15T02:22:51.527Z,62.52
2022-11-15T02:26:16.532Z,62.50
2022-11-15T02:29:13.840Z,62.18
2022-11-15T02:32:19.087Z,61.93
2022-11-15T02:36:15.266Z,61.86
2022-11-15T02:39:35.458Z,61.66
2022-11-15T02:42:54.953Z,61.50
2022-11-15T02:45:47.919Z,62.22
2022-11-15T02:48:33.262Z,62.50
2022-11-15T02:51:18.400Z,61.73
2022-11-15T02:54:03.812Z,61.96
2022-11-15T02:56:49.696Z,62.30
2022-11-15T02:59:48.590Z,61.97
2022-11-15T03:03:16.256Z,62.24
2022-11-15T03:06:22.113Z,62.29
2022-11-15T03:09:56.128Z,62.05
2022-11-15T03:12:46.814Z,61.97
2022-11-15T03:15:38.963Z,61.63
2022-11-15T03:18:30.837Z,61.52
2022-11-15T03:21:16.155Z,61.14
2022-11-15T03:24:03.760Z,61.46
2022-11-15T03:26:49.072Z,61.44
2022-11-15T03:29:38.441Z,61.46
2022-11-15T03:32:26.273Z,62.20
2022-11-15T03:35:25.684Z,62.63
2022-11-15T03:38:23.002Z,61.66
2022-11-15T03:41:16.296Z,61.68
2022-11-15T03:44:17.477Z,61.89
2022-11-15T03:47:02.713Z,62.63
2022-11-15T03:49:54.132Z,62.70
2022-11-15T03:52:40.246Z,62.53
2022-11-15T03:55:25.497Z,63.11
2022-11-15T03:58:10.602Z,62.85
2022-11-15T04:00:55.800Z,62.87
2022-11-15T04:03:41.322Z,62.28
2022-11-15T04:06:26.901Z,62.37
2022-11-15T04:09:12.380Z,62.33
2022-11-15T04:11:57.759Z,61.81
2022-11-15T04:15:03.104Z,62.06
2022-11-15T04:17:49.858Z,61.86
2022-11-15T04:20:53.871Z,61.53
2022-11-15T04:23:58.040Z,61.75
2022-11-15T04:26:43.515Z,61.46
2022-11-15T04:29:34.648Z,61.60
2022-11-15T04:32:19.900Z,61.66
2022-11-15T04:35:06.197Z,61.55
2022-11-15T04:37:51.370Z,61.34
2022-11-15T04:40:37.560Z,61.86
2022-11-15T04:43:23.042Z,62.46
2022-11-15T04:46:08.529Z,62.48
2022-11-15T04:48:58.275Z,62.80
2022-11-15T04:51:44.906Z,62.76
2022-11-15T04:54:30.488Z,62.01
2022-11-15T04:57:16.067Z,62.16
2022-11-15T05:00:07.199Z,62.79
2022-11-15T05:03:10.575Z,62.46
2022-11-15T05:05:55.848Z,62.42
2022-11-15T05:08:41.430Z,61.81
2022-11-15T05:11:27.726Z,61.80
2022-11-15T05:14:13.409Z,61.72
2022-11-15T05:16:58.375Z,61.57
2022-11-15T05:19:45.185Z,61.92
2022-11-15T05:22:30.562Z,61.62
2022-11-15T05:25:15.858Z,61.66
2022-11-15T05:28:01.260Z,60.86
2022-11-15T05:30:46.382Z,61.09
2022-11-15T05:33:33.414Z,61.45
2022-11-15T05:36:41.303Z,61.59
2022-11-15T05:39:26.676Z,61.84
2022-11-15T05:42:15.331Z,62.09
2022-11-15T05:45:01.217Z,62.21
2022-11-15T05:47:46.390Z,62.07
2022-11-15T05:50:31.868Z,62.44
2022-11-15T05:53:18.742Z,62.36
2022-11-15T05:56:06.111Z,62.54
2022-11-15T05:58:59.082Z,62.72
2022-11-15T06:01:44.881Z,62.11
2022-11-15T06:04:30.079Z,62.11
2022-11-15T06:07:15.161Z,62.11
2022-11-15T06:10:00.475Z,62.19
2022-11-15T06:12:45.757Z,61.61
2022-11-15T06:15:33.711Z,62.04
2022-11-15T06:18:19.042Z,62.39
2022-11-15T06:21:04.522Z,62.69
2022-11-15T06:23:49.794Z,62.55
2022-11-15T06:26:35.068Z,63.25
2022-11-15T06:29:20.405Z,63.11
2022-11-15T06:32:05.718Z,62.58
2022-11-15T06:34:51.506Z,62.85
2022-11-15T06:37:36.703Z,63.12
2022-11-15T06:40:22.256Z,62.56
2022-11-15T06:43:08.144Z,61.98
2022-11-15T06:45:53.086Z,61.89
2022-11-15T06:48:38.702Z,61.98
2022-11-15T06:51:24.206Z,62.18
2022-11-15T06:54:09.547Z,61.82
2022-11-15T06:56:54.928Z,61.37
2022-11-15T06:59:40.782Z,61.76
2022-11-15T07:02:26.726Z,62.08
2022-11-15T07:05:12.793Z,62.20
2022-11-15T07:07:58.529Z,62.24
2022-11-15T07:10:43.749Z,62.31
2022-11-15T07:13:33.807Z,62.28
2022-11-15T07:16:20.036Z,62.21
2022-11-15T07:19:05.166Z,61.73
2022-11-15T07:21:50.586Z,61.62
2022-11-15T07:24:35.953Z,61.46
2022-11-15T07:27:21.439Z,61.41
2022-11-15T07:30:08.344Z,61.10
2022-11-15T07:32:57.817Z,61.07
2022-11-15T07:35:43.396Z,60.98
2022-11-15T07:38:29.189Z,60.31
2022-11-15T07:41:14.353Z,60.35
2022-11-15T07:43:59.728Z,60.80
2022-11-15T07:46:45.099Z,60.47
2022-11-15T07:49:30.147Z,60.10
2022-11-15T07:52:15.108Z,59.91
2022-11-15T07:55:00.630Z,58.58
2022-11-15T07:57:46.291Z,58.14
2022-11-15T08:00:32.032Z,63.11
2022-11-15T08:03:17.777Z,63.77
2022-11-15T08:06:04.031Z,62.86
2022-11-15T08:08:49.753Z,61.73
2022-11-15T08:11:35.238Z,61.31
2022-11-15T08:14:22.450Z,60.31
2022-11-15T08:17:08.204Z,59.76
2022-11-15T08:19:53.464Z,58.27
2022-11-15T08:22:38.693Z,59.07
2022-11-15T08:25:26.669Z,61.33
2022-11-15T08:28:11.907Z,66.17
2022-11-15T08:30:57.782Z,65.74
2022-11-15T08:33:44.392Z,63.78
2022-11-15T08:36:39.604Z,63.11
2022-11-15T08:39:29.982Z,62.00
2022-11-15T08:42:19.786Z,61.33
2022-11-15T08:45:06.454Z,60.59
2022-11-15T08:47:54.446Z,60.01
2022-11-15T08:50:39.995Z,57.53
2022-11-15T08:53:25.364Z,58.25
2022-11-15T08:56:13.411Z,61.30
2022-11-15T08:58:58.581Z,64.16
2022-11-15T09:01:43.838Z,64.18
2022-11-15T09:04:29.258Z,62.60
2022-11-15T09:07:14.760Z,61.70
2022-11-15T09:10:01.313Z,60.00
2022-11-15T09:12:48.791Z,59.08
2022-11-15T09:15:34.131Z,57.69
2022-11-15T09:18:22.989Z,58.85
2022-11-15T09:21:09.057Z,61.18
2022-11-15T09:23:54.539Z,65.09
2022-11-15T09:26:40.478Z,63.90
2022-11-15T09:29:27.029Z,61.62
2022-11-15T09:32:12.250Z,60.07
2022-11-15T09:34:58.086Z,58.03
2022-11-15T09:37:43.771Z,58.42
2022-11-15T09:40:30.536Z,59.49
2022-11-15T09:43:41.255Z,61.24
2022-11-15T09:46:51.158Z,64.90
2022-11-15T09:49:39.139Z,64.47
2022-11-15T09:52:12.856Z,62.19
2022-11-15T09:54:53.801Z,60.80
2022-11-15T09:57:24.646Z,59.97
2022-11-15T10:00:44.852Z,57.64
2022-11-15T10:03:26.524Z,61.34
2022-11-15T10:05:57.467Z,61.70
2022-11-15T10:08:58.715Z,60.60
2022-11-15T10:11:37.379Z,59.11
2022-11-15T10:14:16.596Z,57.06
2022-11-15T10:16:59.486Z,57.67
2022-11-15T10:20:22.741Z,62.17
2022-11-15T10:22:52.407Z,64.46
2022-11-15T10:25:23.047Z,62.74
2022-11-15T10:28:00.234Z,61.01
2022-11-15T10:30:35.519Z,60.08
2022-11-15T10:33:24.061Z,57.76
2022-11-15T10:36:13.228Z,57.09
2022-11-15T10:38:49.178Z,58.84
2022-11-15T10:41:32.264Z,59.26
2022-11-15T10:44:12.272Z,60.83
2022-11-15T10:46:48.617Z,61.75
2022-11-15T10:49:23.312Z,66.11
2022-11-15T10:51:54.791Z,65.76
2022-11-15T10:54:40.666Z,63.18
2022-11-15T10:57:18.337Z,60.84
2022-11-15T10:59:50.652Z,60.52
2022-11-15T11:02:42.379Z,59.04
2022-11-15T11:05:39.700Z,57.12
2022-11-15T11:08:16.964Z,58.89
2022-11-15T11:11:02.740Z,63.03
2022-11-15T11:13:40.295Z,64.46
2022-11-15T11:16:15.838Z,63.66
2022-11-15T11:18:55.395Z,62.36
2022-11-15T11:22:15.670Z,61.55
2022-11-15T11:25:24.341Z,59.61
2022-11-15T11:28:29.521Z,57.51
2022-11-15T11:31:20.642Z,58.21
2022-11-15T11:34:11.855Z,60.44
2022-11-15T11:36:58.298Z,62.75
2022-11-15T11:39:38.266Z,66.33
2022-11-15T11:42:58.498Z,65.07
2022-11-15T11:45:49.710Z,62.37
2022-11-15T11:48:38.260Z,60.41
2022-11-15T11:51:21.307Z,59.48
2022-11-15T11:54:23.866Z,57.56
2022-11-15T11:56:50.703Z,59.46
2022-11-15T11:59:41.573Z,58.84
2022-11-15T12:02:29.305Z,60.20
2022-11-15T12:05:09.034Z,61.29
2022-11-15T12:07:35.668Z,63.20
2022-11-15T12:10:22.734Z,66.39
2022-11-15T12:13:12.089Z,65.26
2022-11-15T12:15:46.319Z,63.07
2022-11-15T12:18:15.107Z,61.95
2022-11-15T12:21:11.338Z,60.99
2022-11-15T12:23:43.971Z,58.63
2022-11-15T12:26:24.272Z,57.52
2022-11-15T12:29:32.152Z,58.98
2022-11-15T12:32:00.422Z,60.63
2022-11-15T12:34:46.340Z,61.27
2022-11-15T12:37:41.033Z,61.82
2022-11-15T12:40:21.314Z,62.79
2022-11-15T12:45:43.338Z,66.54
2022-11-15T12:48:18.785Z,64.43
2022-11-15T12:50:52.176Z,62.71
2022-11-15T12:53:28.045Z,61.50
2022-11-15T12:56:12.689Z,60.83
2022-11-15T12:58:57.553Z,58.64
2022-11-15T13:01:33.674Z,57.70
2022-11-15T13:04:19.192Z,57.30
2022-11-15T13:07:05.445Z,58.17
2022-11-15T13:09:51.068Z,58.37
2022-11-15T13:12:26.717Z,61.77
2022-11-15T13:15:00.299Z,64.35
2022-11-15T13:17:52.251Z,68.19
2022-11-15T13:20:39.037Z,66.75
2022-11-15T13:23:11.137Z,64.05
2022-11-15T13:26:08.546Z,62.83
2022-11-15T13:28:46.591Z,61.88
2022-11-15T13:31:48.890Z,60.72
2022-11-15T13:37:21.147Z,57.51
2022-11-15T13:39:48.813Z,58.83
2022-11-15T13:42:16.960Z,60.51
2022-11-15T13:45:01.994Z,61.54
2022-11-15T13:47:29.766Z,61.68
2022-11-15T13:50:01.361Z,64.67
2022-11-15T13:52:31.995Z,67.62
2022-11-15T13:55:11.518Z,65.62
2022-11-15T13:57:51.659Z,63.64
2022-11-15T14:00:43.629Z,62.31
2022-11-15T14:03:28.133Z,61.20
2022-11-15T14:06:15.774Z,60.26
2022-11-15T14:09:15.300Z,59.80
2022-11-15T14:11:55.438Z,58.08
2022-11-15T14:14:24.455Z,58.56
2022-11-15T14:16:59.575Z,60.07
2022-11-15T14:19:26.227Z,61.22
2022-11-15T14:22:28.805Z,62.39
2022-11-15T14:25:34.516Z,67.41
2022-11-15T14:28:22.598Z,66.35
2022-11-15T14:30:51.218Z,64.44
2022-11-15T14:33:20.590Z,63.08
2022-11-15T14:35:47.224Z,62.52
2022-11-15T14:38:14.303Z,61.82
2022-11-15T14:40:41.289Z,61.34
2022-11-15T14:43:10.707Z,60.57
2022-11-15T14:45:37.294Z,60.02
2022-11-15T14:48:03.967Z,59.77
2022-11-15T14:50:30.414Z,59.81
2022-11-15T14:52:57.254Z,58.81
2022-11-15T14:55:25.762Z,57.62
2022-11-15T14:57:52.994Z,58.78
2022-11-15T15:00:20.261Z,60.24
2022-11-15T15:02:47.735Z,61.51
2022-11-15T15:05:23.875Z,63.69
2022-11-15T15:07:50.880Z,67.33
2022-11-15T15:10:40.163Z,66.61
2022-11-15T15:13:05.111Z,65.31
2022-11-15T15:15:38.153Z,64.08
2022-11-15T15:18:05.415Z,63.21
2022-11-15T15:20:32.765Z,62.30
2022-11-15T15:22:59.194Z,61.48
2022-11-15T15:25:35.092Z,60.90
2022-11-15T15:28:02.096Z,59.67
2022-11-15T15:30:32.917Z,57.32
2022-11-15T15:32:59.637Z,58.69
2022-11-15T15:35:31.049Z,60.03
2022-11-15T15:37:57.653Z,60.74
2022-11-15T15:40:24.697Z,60.92
2022-11-15T15:42:51.236Z,63.32
2022-11-15T15:45:18.361Z,68.39
2022-11-15T15:47:45.635Z,68.93
2022-11-15T15:50:22.618Z,67.79
2022-11-15T15:52:50.785Z,66.13
2022-11-15T15:55:17.331Z,64.95
2022-11-15T15:57:43.855Z,63.79
2022-11-15T16:00:11.517Z,63.05
2022-11-15T16:02:41.122Z,62.19
2022-11-15T16:05:08.855Z,61.37
2022-11-15T16:07:35.489Z,60.72
2022-11-15T16:10:05.230Z,59.93
2022-11-15T16:12:34.238Z,59.88
2022-11-15T16:15:01.586Z,59.57
2022-11-15T16:17:34.658Z,57.63
2022-11-15T16:20:01.535Z,56.88
2022-11-15T16:22:29.581Z,58.08
2022-11-15T16:24:56.841Z,59.20
2022-11-15T16:27:23.466Z,59.06
2022-11-15T16:29:50.100Z,58.60
2022-11-15T16:32:16.728Z,59.31
2022-11-15T16:34:48.547Z,61.44
2022-11-15T16:37:23.160Z,60.79
2022-11-15T16:39:49.960Z,61.40
2022-11-15T16:42:16.497Z,60.96
2022-11-15T16:44:44.363Z,61.02
2022-11-15T16:47:20.069Z,66.27
2022-11-15T16:49:46.952Z,73.59
2022-11-15T16:52:17.492Z,72.29
2022-11-15T16:54:46.680Z,69.81
2022-11-15T16:57:13.111Z,68.22
2022-11-15T16:59:39.462Z,66.99
2022-11-15T17:02:13.190Z,65.76
2022-11-15T17:04:39.879Z,64.32
2022-11-15T17:07:06.460Z,63.07
2022-11-15T17:09:33.873Z,61.92
2022-11-15T17:12:00.423Z,60.69
2022-11-15T17:14:26.940Z,60.11
2022-11-15T17:16:54.769Z,59.97
2022-11-15T17:19:21.305Z,59.64
2022-11-15T17:21:51.010Z,59.57
2022-11-15T17:24:17.687Z,59.33
2022-11-15T17:26:44.235Z,57.45
2022-11-15T17:29:10.807Z,58.35
2022-11-15T17:31:39.039Z,59.50
2022-11-15T17:34:05.976Z,58.09
2022-11-15T17:36:32.819Z,57.25
2022-11-15T17:38:59.931Z,58.72
2022-11-15T17:41:27.887Z,60.71
2022-11-15T17:43:59.175Z,65.33
2022-11-15T17:46:26.327Z,70.04
2022-11-15T17:48:52.965Z,71.43
2022-11-15T17:51:19.412Z,67.82
2022-11-15T17:53:46.763Z,65.72
2022-11-15T17:56:15.719Z,63.36
2022-11-15T17:58:46.304Z,62.75
2022-11-15T18:01:19.853Z,62.03
2022-11-15T18:03:46.811Z,61.25
2022-11-15T18:06:13.879Z,60.76
2022-11-15T18:08:42.658Z,60.69
2022-11-15T18:11:21.187Z,60.54
2022-11-15T18:13:52.521Z,60.31
2022-11-15T18:16:21.437Z,59.86
2022-11-15T18:18:47.886Z,58.24
2022-11-15T18:21:28.654Z,57.12
2022-11-15T18:23:57.185Z,59.17
2022-11-15T18:26:27.172Z,59.49
2022-11-15T18:29:02.519Z,60.62
2022-11-15T18:31:30.110Z,59.62
2022-11-15T18:33:58.797Z,60.73
2022-11-15T18:36:27.403Z,66.91
2022-11-15T18:38:55.305Z,69.10
2022-11-15T18:41:24.685Z,69.18
2022-11-15T18:43:51.981Z,68.49
2022-11-15T18:46:19.945Z,67.08
2022-11-15T18:48:49.743Z,66.00
2022-11-15T18:51:19.607Z,65.19
2022-11-15T18:53:46.424Z,64.61
2022-11-15T18:56:17.019Z,63.63
2022-11-15T18:58:48.444Z,63.17
2022-11-15T19:01:16.741Z,62.85
2022-11-15T19:03:45.911Z,62.09
2022-11-15T19:06:17.610Z,61.33
2022-11-15T19:08:45.578Z,60.91
2022-11-15T19:11:14.828Z,60.29
2022-11-15T19:13:42.254Z,59.98
2022-11-15T19:16:12.025Z,58.73
2022-11-15T19:18:38.512Z,57.45
2022-11-15T19:21:14.841Z,58.45
2022-11-15T19:23:42.713Z,59.51
2022-11-15T19:26:14.862Z,60.73
2022-11-15T19:28:41.526Z,60.58
2022-11-15T19:31:11.654Z,59.33
2022-11-15T19:33:38.502Z,58.86
2022-11-15T19:36:16.580Z,59.68
2022-11-15T19:38:43.205Z,60.24
2022-11-15T19:41:14.911Z,62.59
2022-11-15T19:43:41.443Z,70.53
2022-11-15T19:46:11.044Z,72.09
2022-11-15T19:48:37.769Z,70.85
2022-11-15T19:51:15.811Z,69.45
2022-11-15T19:53:42.662Z,68.03
2022-11-15T19:56:15.654Z,67.98
2022-11-15T19:58:42.525Z,66.75
2022-11-15T20:01:21.176Z,65.97
2022-11-15T20:03:49.510Z,64.90
2022-11-15T20:06:21.443Z,64.45
2022-11-15T20:08:48.077Z,64.04
2022-11-15T20:11:14.695Z,63.75
2022-11-15T20:13:41.348Z,63.58
2022-11-15T20:16:08.760Z,62.74
2022-11-15T20:18:35.696Z,61.68
2022-11-15T20:21:06.036Z,61.77
2022-11-15T20:23:32.804Z,61.75
2022-11-15T20:25:59.168Z,61.20
2022-11-15T20:28:27.206Z,60.85
2022-11-15T20:30:57.247Z,60.80
2022-11-15T20:33:24.601Z,60.30
2022-11-15T20:35:51.130Z,60.80
2022-11-15T20:38:18.523Z,60.94
2022-11-15T20:40:46.116Z,60.93
2022-11-15T20:43:14.273Z,60.82
2022-11-15T20:45:45.369Z,60.72
2022-11-15T20:48:15.391Z,60.61
2022-11-15T20:50:43.744Z,60.64
2022-11-15T20:53:12.165Z,60.18
2022-11-15T20:55:43.234Z,59.93
2022-11-15T20:58:09.895Z,59.78
2022-11-15T21:00:36.583Z,59.58
2022-11-15T21:03:06.911Z,59.88
2022-11-15T21:05:36.978Z,59.71
2022-11-15T21:08:03.592Z,59.84
2022-11-15T21:10:48.527Z,59.26
2022-11-15T21:13:15.639Z,58.13
2022-11-15T21:15:42.533Z,59.60
2022-11-15T21:18:09.114Z,61.08
2022-11-15T21:20:35.964Z,65.44
2022-11-15T21:23:03.062Z,68.66
2022-11-15T21:25:29.858Z,67.28
2022-11-15T21:27:56.329Z,62.53
2022-11-15T21:30:22.875Z,59.13
2022-11-15T21:32:49.617Z,56.27
2022-11-15T21:35:16.256Z,57.70
2022-11-15T21:37:42.806Z,58.59
2022-11-15T21:40:10.156Z,58.31
2022-11-15T21:42:36.607Z,58.38
2022-11-15T21:45:03.582Z,59.26
2022-11-15T21:47:29.981Z,61.92
2022-11-15T21:49:56.447Z,69.15
2022-11-15T21:52:22.858Z,71.94
2022-11-15T21:54:49.319Z,65.77
2022-11-15T21:57:15.756Z,60.74
2022-11-15T22:00:00.726Z,59.16
2022-11-15T22:02:27.175Z,57.85
2022-11-15T22:04:53.808Z,59.71
2022-11-15T22:07:20.544Z,61.47
2022-11-15T22:09:47.331Z,64.80
2022-11-15T22:12:14.006Z,68.17
2022-11-15T22:14:40.742Z,64.84
2022-11-15T22:17:07.336Z,63.93
2022-11-15T22:19:34.660Z,62.12
2022-11-15T22:22:01.528Z,60.24
2022-11-15T22:24:28.565Z,59.87
2022-11-15T22:26:55.254Z,57.40
2022-11-15T22:29:21.850Z,57.25
2022-11-15T22:31:48.514Z,59.74
2022-11-15T22:34:15.135Z,58.63
2022-11-15T22:37:12.975Z,59.53
2022-11-15T22:39:31.458Z,59.84
2022-11-15T22:41:58.541Z,63.02
2022-11-15T22:44:24.982Z,68.81
2022-11-15T22:46:51.486Z,67.76
2022-11-15T22:49:17.962Z,67.49
2022-11-15T22:51:44.464Z,66.80
2022-11-15T22:54:10.992Z,66.38
2022-11-15T22:56:37.921Z,65.81
2022-11-15T22:59:04.368Z,65.22
2022-11-15T23:01:30.882Z,64.80
2022-11-15T23:03:57.435Z,64.47
2022-11-15T23:06:23.978Z,64.16
2022-11-15T23:08:50.450Z,63.52
2022-11-15T23:11:35.902Z,62.73
2022-11-15T23:14:02.389Z,62.40
2022-11-15T23:16:35.120Z,62.19
2022-11-15T23:19:07.364Z,61.82
2022-11-15T23:21:58.411Z,61.31
2022-11-15T23:24:25.065Z,60.96
2022-11-15T23:26:56.439Z,60.58
2022-11-15T23:29:24.538Z,60.34
2022-11-15T23:32:10.962Z,60.07
2022-11-15T23:34:43.417Z,59.25
2022-11-15T23:37:12.130Z,58.10
2022-11-15T23:39:38.709Z,59.58
2022-11-15T23:42:09.097Z,59.75
2022-11-15T23:44:36.432Z,63.55
2022-11-15T23:47:02.938Z,69.20
2022-11-15T23:49:29.401Z,67.20
2022-11-15T23:51:55.948Z,65.05
2022-11-15T23:54:22.471Z,63.60
2022-11-15T23:56:48.965Z,61.97
2022-11-15T23:59:15.499Z,63.88
